^^
Datos históricos de la estación: Murcia-Puente Tocinos
Diario Informe para Agosto 06, 2020 Unidades:  Métrico    Ingés   Ambas
Diario Semanal Mensual Anual
  Máxima: Mínima: Promedio:
Temperatura: 31.7 °C 24 °C 27.3 °C
Punto de rocio: 21.6 °C 16.2 °C 19.5 °C
Humedad: 85% 39.6% 65%
Velocidad viento: 18.4km/h 0km/h 8.6km/h
Racha viento: 33.8km/h - -
Viento- - Este
Presión: 1015.9 hPa 1012.8 hPa -
Precipitación: 0.0 mm    
 
 
Tabla de datos para Agosto 06, 2020
Hora Temperatura Punto de rocio Presión Viento Velocidad viento Racha viento Humedad Intensidad lluvia(por hora) Nubes
00:04 25.4 °C 21.1 °C 1012.8 hPa NE 7.6 km/h 12.9 km/h 77% 0.0 mm
00:09 25.4 °C 21.1 °C 1012.8 hPa NNE 7.6 km/h 11.3 km/h 77% 0.0 mm
00:14 25.3 °C 21 °C 1012.8 hPa NNE 7.4 km/h 11.9 km/h 77% 0.0 mm
00:19 25.3 °C 21.2 °C 1012.8 hPa NNE 6.9 km/h 11.1 km/h 78% 0.0 mm
00:24 25.3 °C 21.2 °C 1012.9 hPa NNE 7.2 km/h 13.7 km/h 78% 0.0 mm
00:29 25.3 °C 21.2 °C 1012.9 hPa NNE 8.4 km/h 14.5 km/h 78% 0.0 mm
00:34 25.3 °C 21.2 °C 1012.9 hPa NNE 8 km/h 12.9 km/h 78% 0.0 mm
00:39 25.2 °C 21.1 °C 1012.9 hPa NNE 6.9 km/h 13 km/h 78% 0.0 mm
00:44 25.2 °C 21.2 °C 1012.9 hPa NNE 7.3 km/h 12.9 km/h 78.8% 0.0 mm
00:49 25.2 °C 21.3 °C 1012.9 hPa NNE 8.4 km/h 11.3 km/h 79% 0.0 mm
00:54 25.1 °C 21.2 °C 1013.0 hPa NE 8.4 km/h 13.7 km/h 79% 0.0 mm
00:59 25 °C 21.2 °C 1013.0 hPa NNE 8.4 km/h 14.5 km/h 79% 0.0 mm
01:04 24.9 °C 21.3 °C 1013.0 hPa NNE 8.4 km/h 12.9 km/h 80% 0.0 mm
01:09 24.9 °C 21.2 °C 1013.0 hPa NNE 8.4 km/h 11.3 km/h 80% 0.0 mm
01:14 24.8 °C 21.2 °C 1013.0 hPa NNE 8 km/h 13 km/h 80% 0.0 mm
01:19 24.8 °C 21.1 °C 1013.0 hPa NE 6.9 km/h 12.9 km/h 80% 0.0 mm
01:24 24.8 °C 21.1 °C 1013.1 hPa NE 6.4 km/h 9.7 km/h 80% 0.0 mm
01:29 24.8 °C 21.1 °C 1013.1 hPa NNE 4.7 km/h 8.4 km/h 80% 0.0 mm
01:34 24.8 °C 21.1 °C 1013.1 hPa NNE 4.7 km/h 9.3 km/h 80% 0.0 mm
01:39 24.7 °C 21.1 °C 1013.1 hPa NNE 5 km/h 10 km/h 80.5% 0.0 mm
01:44 24.7 °C 21.2 °C 1013.1 hPa NNE 5.3 km/h 10 km/h 81% 0.0 mm
01:49 24.7 °C 21.2 °C 1013.1 hPa NNE 6.4 km/h 10.3 km/h 81% 0.0 mm
01:54 24.6 °C 21.1 °C 1013.1 hPa NNE 6.7 km/h 11.3 km/h 81% 0.0 mm
01:59 24.6 °C 21.1 °C 1013.0 hPa NNE 7.6 km/h 11.3 km/h 81% 0.0 mm
02:04 24.6 °C 21.1 °C 1013.0 hPa NNE 7.3 km/h 11.1 km/h 81% 0.0 mm
02:09 24.5 °C 21.1 °C 1013.0 hPa NE 6.5 km/h 11.3 km/h 81.6% 0.0 mm
02:14 24.5 °C 21.2 °C 1013.0 hPa NNE 6.5 km/h 11.3 km/h 82% 0.0 mm
02:19 24.4 °C 21.1 °C 1013.0 hPa NNE 6.5 km/h 9.7 km/h 82% 0.0 mm
02:24 24.5 °C 21.2 °C 1013.0 hPa NNE 6.3 km/h 9.5 km/h 82% 0.0 mm
02:29 24.5 °C 21.2 °C 1013.0 hPa NNE 5.8 km/h 11.9 km/h 82% 0.0 mm
02:34 24.4 °C 21.1 °C 1013.0 hPa NNE 5.9 km/h 11.1 km/h 82% 0.0 mm
02:39 24.4 °C 21.1 °C 1013.1 hPa NNE 6.4 km/h 11.3 km/h 82% 0.0 mm
02:44 24.4 °C 21.1 °C 1013.1 hPa NNE 6.3 km/h 9.7 km/h 82% 0.0 mm
02:49 24.4 °C 21.1 °C 1013.1 hPa NNE 5.8 km/h 9.5 km/h 82% 0.0 mm
02:54 24.4 °C 21.1 °C 1013.1 hPa NNE 5.8 km/h 11.1 km/h 82% 0.0 mm
02:59 24.3 °C 21.1 °C 1013.1 hPa NNE 5.8 km/h 11.3 km/h 82.3% 0.0 mm
03:04 24.3 °C 21.2 °C 1013.1 hPa NE 5.8 km/h 9.7 km/h 83% 0.0 mm
03:09 24.2 °C 21.1 °C 1013.1 hPa NE 5.8 km/h 9.7 km/h 83% 0.0 mm
03:14 24.2 °C 21.1 °C 1013.1 hPa NE 5.8 km/h 9.7 km/h 83% 0.0 mm
03:19 24.2 °C 21.2 °C 1013.1 hPa NNE 5.8 km/h 9.7 km/h 83.3% 0.0 mm
03:24 24.2 °C 21.2 °C 1013.1 hPa North 5.6 km/h 9.7 km/h 83.5% 0.0 mm
03:29 24.3 °C 21.2 °C 1013.1 hPa NNO 5 km/h 8 km/h 83% 0.0 mm
03:34 24.3 °C 21.2 °C 1013.1 hPa NNO 3.9 km/h 3.9 km/h 83% 0.0 mm
03:39 24.2 °C 21.1 °C 1013.2 hPa Calm   3.9 km/h 83% 0.0 mm
03:44 24.2 °C 21.1 °C 1013.2 hPa NO 0.5 km/h 3.9 km/h 83% 0.0 mm
03:49 24.2 °C 21.1 °C 1013.2 hPa NO 2.2 km/h 3.7 km/h 83% 0.0 mm
03:54 24.2 °C 21.1 °C 1013.2 hPa NO 1.8 km/h 3.9 km/h 83% 0.0 mm
03:59 24.3 °C 21.2 °C 1013.2 hPa Calm   5.6 km/h 83% 0.0 mm
04:04 24.3 °C 21.2 °C 1013.2 hPa NNE 0.4 km/h 4.8 km/h 83% 0.0 mm
04:09 24.3 °C 21.3 °C 1013.2 hPa NNE 2.2 km/h 5.6 km/h 83% 0.0 mm
04:14 24.4 °C 21.3 °C 1013.2 hPa NNE 2.4 km/h 7.4 km/h 83% 0.0 mm
04:19 24.4 °C 21.3 °C 1013.2 hPa NNE 2.9 km/h 8 km/h 83% 0.0 mm
04:24 24.4 °C 21.3 °C 1013.2 hPa NE 3 km/h 8 km/h 83% 0.0 mm
04:29 24.4 °C 21.3 °C 1013.2 hPa NE 3.2 km/h 6.4 km/h 83% 0.0 mm
04:34 24.4 °C 21.3 °C 1013.2 hPa North 2.6 km/h 5.6 km/h 83% 0.0 mm
04:39 24.4 °C 21.3 °C 1013.2 hPa Calm   5.8 km/h 83% 0.0 mm
04:44 24.4 °C 21.3 °C 1013.2 hPa NO 0.5 km/h 6.4 km/h 83% 0.0 mm
04:49 24.4 °C 21.3 °C 1013.2 hPa NO 2.3 km/h   83% 0.0 mm
04:54 24.4 °C 21.3 °C 1013.3 hPa NO 1.8 km/h 4.7 km/h 83% 0.0 mm
04:59 24.4 °C 21.3 °C 1013.3 hPa Calm   4.8 km/h 83% 0.0 mm
05:04 24.4 °C 21.3 °C 1013.3 hPa NO 0.7 km/h 5.8 km/h 83% 0.0 mm
05:09 24.3 °C 21.2 °C 1013.3 hPa ONO 2.9 km/h 7.4 km/h 83% 0.0 mm
05:14 24.3 °C 21.2 °C 1013.3 hPa ONO 3.1 km/h 8 km/h 83% 0.0 mm
05:19 24.3 °C 21.3 °C 1013.3 hPa ONO 3.9 km/h 8 km/h 83.6% 0.0 mm
05:24 24.2 °C 21.4 °C 1013.5 hPa ONO 3.7 km/h 5.8 km/h 84% 0.0 mm
05:29 24.2 °C 21.3 °C 1013.5 hPa ONO 2.9 km/h 6.4 km/h 84% 0.0 mm
05:34 24.2 °C 21.3 °C 1013.5 hPa ONO 2.8 km/h 4.8 km/h 84% 0.0 mm
05:39 24.2 °C 21.4 °C 1013.5 hPa ONO 2.2 km/h 5.6 km/h 84% 0.0 mm
05:44 24.3 °C 21.4 °C 1013.5 hPa ONO 2.4 km/h 5.8 km/h 84% 0.0 mm
05:49 24.3 °C 21.4 °C 1013.5 hPa NO 2.9 km/h 6.4 km/h 84% 0.0 mm
05:54 24.3 °C 21.4 °C 1013.5 hPa NO 2.9 km/h 7.4 km/h 84% 0.0 mm
05:59 24.2 °C 21.4 °C 1013.5 hPa NO 2.9 km/h 7.4 km/h 84% 0.0 mm
06:04 24.2 °C 21.3 °C 1013.5 hPa ONO 3 km/h 8 km/h 84% 0.0 mm
06:09 24.2 °C 21.3 °C 1013.6 hPa Oeste 3.2 km/h 6.4 km/h 84% 0.0 mm
06:14 24.2 °C 21.3 °C 1013.6 hPa Oeste 3.2 km/h 5.6 km/h 84% 0.0 mm
06:19 24.1 °C 21.2 °C 1013.6 hPa Oeste 2.9 km/h 4.8 km/h 84% 0.0 mm
06:24 24.1 °C 21.2 °C 1013.7 hPa ONO 2.8 km/h 5.6 km/h 84% 0.0 mm
06:29 24.1 °C 21.2 °C 1013.7 hPa ONO 2.2 km/h 5.6 km/h 84% 0.0 mm
06:34 24.1 °C 21.2 °C 1013.7 hPa ONO 2.4 km/h 5.6 km/h 84% 0.0 mm
06:39 24.1 °C 21.2 °C 1013.8 hPa ONO 2.9 km/h 5.6 km/h 84% 0.0 mm
06:44 24 °C 21.1 °C 1013.8 hPa ONO 2.7 km/h 4.8 km/h 84% 0.0 mm
06:49 24 °C 21.1 °C 1013.8 hPa ONO 2.2 km/h 4.7 km/h 84% 0.0 mm
06:54 24 °C 21.2 °C 1014.0 hPa Oeste 2.4 km/h 4.7 km/h 84.5% 0.0 mm
06:59 24.1 °C 21.4 °C 1014.0 hPa Oeste 2.9 km/h 5 km/h 85% 0.0 mm
07:04 24.1 °C 21.3 °C 1014.0 hPa Oeste 2.8 km/h 4.8 km/h 84.3% 0.0 mm
07:09 24.1 °C 21.2 °C 1014.2 hPa OSO 2.2 km/h 5.6 km/h 84.1% 0.0 mm
07:14 24.1 °C 21.2 °C 1014.2 hPa SO 2.3 km/h 3.9 km/h 84% 0.0 mm
07:19 24.1 °C 21.2 °C 1014.2 hPa SO 2.2 km/h 3.2 km/h 84% 0.0 mm
07:24 24.2 °C 21.3 °C 1014.2 hPa SO 1.8 km/h   84% 0.0 mm
07:29 24.2 °C 21.3 °C 1014.1 hPa Calm     84% 0.0 mm
07:34 24.2 °C 21.3 °C 1014.1 hPa Calm     84% 0.0 mm
07:39 24.2 °C 21.3 °C 1014.1 hPa Calm     84% 0.0 mm
07:44 24.2 °C 21.4 °C 1014.1 hPa Calm     84% 0.0 mm
07:49 24.3 °C 21.4 °C 1014.1 hPa Calm   6.4 km/h 83.6% 0.0 mm
07:54 24.2 °C 21.2 °C 1014.3 hPa ESE 0.4 km/h 8 km/h 83% 0.0 mm
07:59 24.3 °C 21.1 °C 1014.3 hPa SE 2.2 km/h 7.4 km/h 82.2% 0.0 mm
08:04 24.3 °C 21.2 °C 1014.3 hPa Sur 2.5 km/h 8 km/h 82.8% 0.0 mm
08:09 24.5 °C 21.4 °C 1014.3 hPa SSO 3.2 km/h 6.4 km/h 83% 0.0 mm
08:14 24.6 °C 21.4 °C 1014.3 hPa SO 3 km/h 5.8 km/h 82.1% 0.0 mm
08:19 24.6 °C 21.4 °C 1014.3 hPa OSO 2.2 km/h 6.4 km/h 82% 0.0 mm
08:24 24.8 °C 21.6 °C 1014.4 hPa ONO 2.4 km/h 7.4 km/h 82.3% 0.0 mm
08:29 25 °C 21.5 °C 1014.4 hPa NNO 2.9 km/h 8 km/h 81.1% 0.0 mm
08:34 25.2 °C 21.5 °C 1014.4 hPa North 2.9 km/h 6.4 km/h 80.3% 0.0 mm
08:39 25.3 °C 21.6 °C 1014.6 hPa NNO 2.9 km/h 6.4 km/h 79.8% 0.0 mm
08:44 25.5 °C 21.5 °C 1014.6 hPa NNO 3 km/h 7.4 km/h 78.6% 0.0 mm
08:49 25.6 °C 21.5 °C 1014.6 hPa NNE 3.2 km/h 8 km/h 77.7% 0.0 mm
08:54 25.7 °C 21.4 °C 1014.8 hPa NNE 3.4 km/h 6.4 km/h 77.1% 0.0 mm
08:59 25.8 °C 21.4 °C 1014.8 hPa NNE 3.9 km/h 8 km/h 77% 0.0 mm
09:04 25.9 °C 21.5 °C 1014.8 hPa NNE 3.9 km/h 8 km/h 76.8% 0.0 mm
09:09 26 °C 21.5 °C 1014.9 hPa North 3.9 km/h 8 km/h 76% 0.0 mm
09:14 26.2 °C 21.5 °C 1014.9 hPa NO 3.6 km/h 4.8 km/h 75.7% 0.0 mm
09:19 26.3 °C 21.5 °C 1014.9 hPa North 2.9 km/h 7.6 km/h 74.9% 0.0 mm
09:24 26.4 °C 21.4 °C 1014.9 hPa NNE 3 km/h 9.3 km/h 74.1% 0.0 mm
09:29 26.4 °C 21.4 °C 1014.9 hPa NE 3.2 km/h 9.7 km/h 74% 0.0 mm
09:34 26.4 °C 21.4 °C 1014.9 hPa NNE 3.6 km/h 9.3 km/h 74% 0.0 mm
09:39 26.4 °C 21.4 °C 1015.1 hPa NE 5 km/h 13 km/h 74% 0.0 mm
09:44 26.3 °C 21.3 °C 1015.1 hPa NNE 5.3 km/h 12.9 km/h 74% 0.0 mm
09:49 26.1 °C 21.1 °C 1015.1 hPa North 6.4 km/h 11.9 km/h 74.1% 0.0 mm
09:54 26.2 °C 21.2 °C 1015.1 hPa North 6.5 km/h 11.9 km/h 74% 0.0 mm
09:59 26.2 °C 21.1 °C 1015.1 hPa NNE 6.5 km/h 14.8 km/h 73.5% 0.0 mm
10:04 26.1 °C 20.8 °C 1015.1 hPa NE 6.7 km/h 14.5 km/h 72.8% 0.0 mm
10:09 26.1 °C 20.7 °C 1015.1 hPa NE 7.6 km/h 13.7 km/h 71.9% 0.0 mm
10:14 26.2 °C 20.6 °C 1015.1 hPa NE 7.6 km/h 14.8 km/h 71.5% 0.0 mm
10:19 26.3 °C 20.6 °C 1015.1 hPa NE 7.6 km/h 15.6 km/h 71% 0.0 mm
10:24 26.5 °C 20.7 °C 1015.2 hPa North 7.8 km/h 16.1 km/h 70.5% 0.0 mm
10:29 26.7 °C 20.6 °C 1015.2 hPa NE 8.4 km/h 16.7 km/h 69.2% 0.0 mm
10:34 26.8 °C 20.4 °C 1015.2 hPa North 8 km/h 16.1 km/h 68.3% 0.0 mm
10:39 27.1 °C 20.8 °C 1015.3 hPa NE 6.9 km/h 12.9 km/h 68.7% 0.0 mm
10:44 27.3 °C 20.5 °C 1015.3 hPa NNE 6.9 km/h 16.7 km/h 66.6% 0.0 mm
10:49 27.3 °C 20.4 °C 1015.3 hPa NNE 6.9 km/h 18.5 km/h 65.9% 0.0 mm
10:54 27.3 °C 20.3 °C 1015.4 hPa North 7.4 km/h 19.3 km/h 65.4% 0.0 mm
10:59 27.3 °C 20.3 °C 1015.4 hPa North 9.5 km/h 16.1 km/h 65.5% 0.0 mm
11:04 27.4 °C 20.4 °C 1015.4 hPa NO 8.7 km/h 14.5 km/h 65.3% 0.0 mm
11:09 27.6 °C 20.6 °C 1015.4 hPa North 6.5 km/h 13.7 km/h 65.8% 0.0 mm
11:14 27.7 °C 20.5 °C 1015.4 hPa North 6.5 km/h 14.5 km/h 64.7% 0.0 mm
11:19 27.8 °C 20.3 °C 1015.4 hPa Oeste 6.4 km/h 11.1 km/h 63.9% 0.0 mm
11:24 27.8 °C 20.2 °C 1015.5 hPa NNE 6.1 km/h 14 km/h 63% 0.0 mm
11:29 28 °C 20 °C 1015.5 hPa NNE 4.7 km/h 16.1 km/h 62.1% 0.0 mm
11:34 28.2 °C 20 °C 1015.5 hPa Sur 5.2 km/h 17.2 km/h 61.3% 0.0 mm
11:39 28.3 °C 19.9 °C 1015.5 hPa NNE 7.6 km/h 17.7 km/h 60.5% 0.0 mm
11:44 28.3 °C 19.8 °C 1015.4 hPa NNE 8.1 km/h 17.7 km/h 60.2% 0.0 mm
11:49 28.3 °C 19.9 °C 1015.4 hPa NNE 10.3 km/h 18.3 km/h 60.1% 0.0 mm
11:54 28.6 °C 20 °C 1015.4 hPa North 9.9 km/h 18 km/h 59.7% 0.0 mm
11:59 28.7 °C 19.7 °C 1015.4 hPa NE 8.4 km/h 19.3 km/h 58.3% 0.0 mm
12:04 28.8 °C 19.5 °C 1015.4 hPa North 8.9 km/h 20.4 km/h 57.3% 0.0 mm
12:09 28.8 °C 19.6 °C 1015.4 hPa NNE 10.3 km/h 20.9 km/h 57.5% 0.0 mm
12:14 29 °C 19.5 °C 1015.4 hPa NNE 9.8 km/h 17.7 km/h 56.7% 0.0 mm
12:19 29.2 °C 19.5 °C 1015.4 hPa NE 7.6 km/h 18.5 km/h 55.9% 0.0 mm
12:24 29.3 °C 19.7 °C 1015.4 hPa NNE 7.8 km/h 19.3 km/h 56.4% 0.0 mm
12:29 29.5 °C 19.5 °C 1015.2 hPa NNE 8.7 km/h 16.7 km/h 55.1% 0.0 mm
12:34 29.7 °C 19.3 °C 1015.2 hPa ENE 8.9 km/h 18.5 km/h 53.6% 0.0 mm
12:39 30 °C 18.6 °C 1015.2 hPa NE 9.5 km/h 19.3 km/h 50.4% 0.0 mm
12:44 30.1 °C 18.4 °C 1015.0 hPa NNE 9.3 km/h 18.3 km/h 49.6% 0.0 mm
12:49 30.1 °C 17.5 °C 1015.0 hPa NE 8.4 km/h 22.5 km/h 46.8% 0.0 mm
12:54 30.1 °C 17.6 °C 1015.0 hPa Este 9.1 km/h 22.5 km/h 47% 0.0 mm
12:59 30.2 °C 17.4 °C 1014.9 hPa ENE 12.2 km/h 22.5 km/h 46.5% 0.0 mm
13:04 30.2 °C 17.3 °C 1014.9 hPa NNE 11.8 km/h 22.5 km/h 45.8% 0.0 mm
13:09 30.3 °C 17 °C 1014.9 hPa North 10 km/h 19.3 km/h 44.7% 0.0 mm
13:14 30.4 °C 17 °C 1014.8 hPa NE 10 km/h 19.3 km/h 44.5% 0.0 mm
13:19 30.5 °C 16.9 °C 1014.8 hPa NNE 10.3 km/h 20.4 km/h 44.1% 0.0 mm
13:24 30.5 °C 17.2 °C 1014.8 hPa NNE 10.6 km/h 22.2 km/h 45% 0.0 mm
13:29 30.6 °C 16.8 °C 1014.7 hPa NNE 11.9 km/h 22.5 km/h 43.7% 0.0 mm
13:34 30.7 °C 17 °C 1014.7 hPa NNE 12.2 km/h 22.5 km/h 43.8% 0.0 mm
13:39 30.9 °C 17 °C 1014.7 hPa NNE 13 km/h 22.2 km/h 43.5% 0.0 mm
13:44 30.8 °C 17.4 °C 1014.6 hPa NE 12.8 km/h 22.5 km/h 44.5% 0.0 mm
13:49 30.9 °C 17.4 °C 1014.6 hPa NNE 11.9 km/h 27.8 km/h 44.6% 0.0 mm
13:54 30.8 °C 17.1 °C 1014.6 hPa NE 12.5 km/h 27.8 km/h 44% 0.0 mm
13:59 30.8 °C 17.1 °C 1014.6 hPa NNE 14 km/h 25.7 km/h 43.9% 0.0 mm
14:04 30.9 °C 16.7 °C 1014.6 hPa NNE 14.3 km/h 26.2 km/h 42.6% 0.0 mm
14:09 30.8 °C 16.6 °C 1014.6 hPa NNE 15.6 km/h 28.2 km/h 42.5% 0.0 mm
14:14 30.8 °C 16.5 °C 1014.5 hPa NNE 15.3 km/h 27.4 km/h 42.3% 0.0 mm
14:19 30.9 °C 16.7 °C 1014.5 hPa NE 14 km/h 24.1 km/h 42.5% 0.0 mm
14:24 31.3 °C 16.8 °C 1014.5 hPa NE 13.5 km/h 29.8 km/h 41.8% 0.0 mm
14:29 31.5 °C 16.5 °C 1014.4 hPa NE 11.9 km/h 30.6 km/h 40.7% 0.0 mm
14:34 31.4 °C 16.5 °C 1014.4 hPa NE 12.6 km/h 29 km/h 40.7% 0.0 mm
14:39 31.6 °C 16.5 °C 1014.4 hPa NNE 15.6 km/h 27.4 km/h 40.6% 0.0 mm
14:44 31.3 °C 16.4 °C 1014.3 hPa NNE 15.4 km/h 27.8 km/h 40.6% 0.0 mm
14:49 31.2 °C 16.3 °C 1014.3 hPa NNE 14.8 km/h 25.9 km/h 40.7% 0.0 mm
14:54 31.3 °C 16.3 °C 1014.3 hPa NNE 15 km/h 25.9 km/h 40.7% 0.0 mm
14:59 31.4 °C 16.5 °C 1014.3 hPa NNE 15.6 km/h 27.8 km/h 40.9% 0.0 mm
15:04 31.4 °C 16.8 °C 1014.3 hPa NNE 15.4 km/h 27.4 km/h 41.7% 0.0 mm
15:09 31.5 °C 16.8 °C 1014.3 hPa NNE 14.8 km/h 25.6 km/h 41.3% 0.0 mm
15:14 31.6 °C 16.5 °C 1014.2 hPa NNE 14.6 km/h 29.8 km/h 40.4% 0.0 mm
15:19 31.5 °C 16.5 °C 1014.2 hPa NE 14 km/h 30.6 km/h 40.5% 0.0 mm
15:24 31.5 °C 16.7 °C 1014.2 hPa NE 14.4 km/h 30.6 km/h 41% 0.0 mm
15:29 31.5 °C 16.7 °C 1014.2 hPa NE 16.1 km/h 30.6 km/h 41.1% 0.0 mm
15:34 31.4 °C 16.7 °C 1014.2 hPa NNE 16.3 km/h 29.6 km/h 41.4% 0.0 mm
15:39 31.4 °C 16.9 °C 1014.2 hPa NNE 17.2 km/h 29 km/h 41.8% 0.0 mm
15:44 31.6 °C 16.8 °C 1014.0 hPa NNE 17 km/h 29.8 km/h 41% 0.0 mm
15:49 31.6 °C 16.7 °C 1014.0 hPa NE 16.1 km/h 30.6 km/h 41% 0.0 mm
15:54 31.5 °C 16.7 °C 1014.0 hPa NE 16.4 km/h 29 km/h 41% 0.0 mm
15:59 31.6 °C 16.7 °C 1013.9 hPa NE 17.2 km/h 30.6 km/h 41% 0.0 mm
16:04 31.5 °C 16.7 °C 1013.9 hPa NE 16.9 km/h 32.3 km/h 41% 0.0 mm
16:09 31.4 °C 16.3 °C 1013.9 hPa NNE 16.1 km/h 32.2 km/h 40.1% 0.0 mm
16:14 31.3 °C 16.4 °C 1013.8 hPa NNE 16.2 km/h 30.6 km/h 40.7% 0.0 mm
16:19 31.6 °C 16.3 °C 1013.8 hPa NNE 16.4 km/h 29.6 km/h 40% 0.0 mm
16:24 31.6 °C 16.4 °C 1013.8 hPa NE 16.3 km/h 29 km/h 40.1% 0.0 mm
16:29 31.7 °C 16.3 °C 1013.8 hPa NE 16.1 km/h 29.6 km/h 39.6% 0.0 mm
16:34 31.5 °C 16.3 °C 1013.8 hPa NE 16.4 km/h 29.6 km/h 40% 0.0 mm
16:39 31.4 °C 16.4 °C 1013.8 hPa NE 17.2 km/h 30.6 km/h 40.6% 0.0 mm
16:44 31.5 °C 16.3 °C 1013.7 hPa NNE 17.4 km/h 30.6 km/h 40.1% 0.0 mm
16:49 31.6 °C 16.5 °C 1013.7 hPa NE 18 km/h 29 km/h 40.4% 0.0 mm
16:54 31.6 °C 16.5 °C 1013.7 hPa NE 17.3 km/h 25.7 km/h 40.5% 0.0 mm
16:59 31.4 °C 16.5 °C 1013.6 hPa NE 14 km/h 25.9 km/h 40.9% 0.0 mm
17:04 31.4 °C 16.6 °C 1013.6 hPa NE 14.4 km/h 25.9 km/h 41% 0.0 mm
17:09 31.5 °C 16.6 °C 1013.6 hPa NE 15.6 km/h 29.6 km/h 41% 0.0 mm
17:14 31.7 °C 16.5 °C 1013.5 hPa NE 15.6 km/h 29 km/h 40.2% 0.0 mm
17:19 31.5 °C 16.5 °C 1013.5 hPa NNE 15.6 km/h 27.4 km/h 40.6% 0.0 mm
17:24 31.3 °C 16.5 °C 1013.5 hPa NNE 15.4 km/h 24.1 km/h 41% 0.0 mm
17:29 31.4 °C 16.6 °C 1013.5 hPa ENE 14.8 km/h 24.1 km/h 41.1% 0.0 mm
17:34 31.6 °C 16.6 °C 1013.5 hPa NE 14.2 km/h 24.1 km/h 40.6% 0.0 mm
17:39 31.7 °C 16.5 °C 1013.5 hPa NE 11.9 km/h 28.6 km/h 40.1% 0.0 mm
17:44 31.3 °C 16.2 °C 1013.4 hPa NE 12.7 km/h 31.7 km/h 40.2% 0.0 mm
17:49 31.2 °C 16.3 °C 1013.4 hPa NE 15.6 km/h 32.2 km/h 40.8% 0.0 mm
17:54 31.2 °C 16.8 °C 1013.4 hPa NNE 15.2 km/h 25.9 km/h 41.9% 0.0 mm
17:59 31.2 °C 16.8 °C 1013.3 hPa NNE 13.7 km/h 33.5 km/h 42% 0.0 mm
18:04 30.9 °C 16.9 °C 1013.3 hPa NE 14.5 km/h 33.8 km/h 43% 0.0 mm
18:09 30.8 °C 17.2 °C 1013.3 hPa NE 18.3 km/h 30.6 km/h 44% 0.0 mm
18:14 30.7 °C 16.9 °C 1013.3 hPa NNE 18.4 km/h 33.3 km/h 43.6% 0.0 mm
18:19 30.6 °C 17.2 °C 1013.3 hPa NE 18.4 km/h 33.8 km/h 44.5% 0.0 mm
18:24 30.6 °C 16.9 °C 1013.3 hPa NNE 18.2 km/h 29.8 km/h 44% 0.0 mm
18:29 30.5 °C 17.1 °C 1013.3 hPa NNE 17.2 km/h 30.6 km/h 44.6% 0.0 mm
18:34 30.4 °C 17 °C 1013.3 hPa NNE 17.2 km/h 30.6 km/h 44.8% 0.0 mm
18:39 30.4 °C 17.1 °C 1013.4 hPa NNE 17.2 km/h 30.6 km/h 45% 0.0 mm
18:44 30.2 °C 17.3 °C 1013.4 hPa NNE 17.4 km/h 31.7 km/h 45.9% 0.0 mm
18:49 30.1 °C 17.5 °C 1013.4 hPa NNE 18 km/h 32.2 km/h 46.9% 0.0 mm
18:54 30.1 °C 17.9 °C 1013.5 hPa NE 17.6 km/h 27.4 km/h 48% 0.0 mm
18:59 30.2 °C 17.7 °C 1013.5 hPa NNE 15.6 km/h 28.2 km/h 47.1% 0.0 mm
19:04 29.9 °C 18 °C 1013.5 hPa NNE 15.7 km/h 33.5 km/h 48.7% 0.0 mm
19:09 29.8 °C 17.9 °C 1013.6 hPa NNE 16.1 km/h 33.8 km/h 48.9% 0.0 mm
19:14 29.7 °C 17.8 °C 1013.6 hPa NE 16.2 km/h 27.4 km/h 48.7% 0.0 mm
19:19 29.8 °C 17.9 °C 1013.6 hPa NE 16.4 km/h 27.4 km/h 49.1% 0.0 mm
19:24 29.7 °C 18.2 °C 1013.7 hPa NNE 15.9 km/h 27.8 km/h 50.1% 0.0 mm
19:29 29.5 °C 18 °C 1013.7 hPa NE 14 km/h 27.4 km/h 50.3% 0.0 mm
19:34 29.3 °C 18.2 °C 1013.7 hPa NNE 14.3 km/h 25.9 km/h 51% 0.0 mm
19:39 29.3 °C 18 °C 1013.8 hPa NNE 15.6 km/h 27.8 km/h 50.8% 0.0 mm
19:44 29.2 °C 17.9 °C 1013.8 hPa NNE 15.6 km/h 27.4 km/h 50.9% 0.0 mm
19:49 29.2 °C 17.7 °C 1013.8 hPa NNE 15.6 km/h 27.8 km/h 50.1% 0.0 mm
19:54 29.1 °C 18.1 °C 1013.8 hPa NNE 15.1 km/h 22.2 km/h 51.6% 0.0 mm
19:59 29 °C 18.1 °C 1013.8 hPa NNE 13 km/h 22.5 km/h 52% 0.0 mm
20:04 28.9 °C 18.1 °C 1013.8 hPa NE 12.7 km/h 22.5 km/h 52% 0.0 mm
20:09 28.9 °C 17.9 °C 1014.1 hPa NE 11.1 km/h 24.1 km/h 51.6% 0.0 mm
20:14 28.9 °C 18.3 °C 1014.1 hPa NE 11.1 km/h 24.1 km/h 52.8% 0.0 mm
20:19 28.7 °C 18 °C 1014.1 hPa NNE 11.1 km/h 26.2 km/h 52.4% 0.0 mm
20:24 28.5 °C 17.9 °C 1014.1 hPa NE 11.8 km/h 25.7 km/h 52.7% 0.0 mm
20:29 28.4 °C 18.4 °C 1014.1 hPa NE 14.8 km/h 22.5 km/h 54.6% 0.0 mm
20:34 28.3 °C 18.6 °C 1014.1 hPa NNE 14.3 km/h 25.9 km/h 55.7% 0.0 mm
20:39 28.2 °C 18.7 °C 1014.3 hPa NNE 12.2 km/h 25.7 km/h 56.6% 0.0 mm
20:44 28.1 °C 19 °C 1014.3 hPa NE 12.2 km/h 22.5 km/h 58% 0.0 mm
20:49 27.9 °C 18.9 °C 1014.3 hPa NE 11.9 km/h 22.5 km/h 58% 0.0 mm
20:54 27.8 °C 18.8 °C 1014.5 hPa NE 11.8 km/h 22.5 km/h 58% 0.0 mm
20:59 27.7 °C 18.8 °C 1014.5 hPa NNE 11.1 km/h 20.9 km/h 58.4% 0.0 mm
21:04 27.6 °C 18.9 °C 1014.5 hPa NNE 11 km/h 19.3 km/h 59.2% 0.0 mm
21:09 27.5 °C 19 °C 1014.6 hPa NE 10.3 km/h 18.5 km/h 60% 0.0 mm
21:14 27.3 °C 19.1 °C 1014.6 hPa NNE 10.5 km/h 19.3 km/h 60.8% 0.0 mm
21:19 27.3 °C 19.1 °C 1014.6 hPa NE 11.1 km/h 16.1 km/h 61% 0.0 mm
21:24 27.2 °C 19.2 °C 1014.7 hPa NE 10.7 km/h 16.7 km/h 61.7% 0.0 mm
21:29 27.1 °C 19.4 °C 1014.7 hPa NNE 8.4 km/h 16.7 km/h 62.8% 0.0 mm
21:34 27 °C 19.5 °C 1014.7 hPa NNE 8.6 km/h 14.5 km/h 63.7% 0.0 mm
21:39 26.9 °C 19.5 °C 1014.8 hPa NE 9.5 km/h 16.7 km/h 64% 0.0 mm
21:44 26.8 °C 19.6 °C 1014.8 hPa NE 9.6 km/h 16.1 km/h 64.6% 0.0 mm
21:49 26.7 °C 19.6 °C 1014.8 hPa NNE 10 km/h 14.5 km/h 65% 0.0 mm
21:54 26.7 °C 19.8 °C 1015.0 hPa NNE 9.3 km/h 11.3 km/h 65.9% 0.0 mm
21:59 26.7 °C 19.9 °C 1015.0 hPa NNE 6.9 km/h 11.9 km/h 66.4% 0.0 mm
22:04 26.6 °C 19.9 °C 1015.0 hPa NE 6.9 km/h 11.3 km/h 67% 0.0 mm
22:09 26.6 °C 20.1 °C 1015.4 hPa NNE 6.9 km/h 11.3 km/h 67.5% 0.0 mm
22:14 26.5 °C 20.1 °C 1015.4 hPa NE 7 km/h 14.8 km/h 68% 0.0 mm
22:19 26.4 °C 20 °C 1015.4 hPa NNE 7.6 km/h 13.7 km/h 68% 0.0 mm
22:24 26.4 °C 20 °C 1015.5 hPa NE 7.3 km/h 14.5 km/h 68% 0.0 mm
22:29 26.3 °C 20.1 °C 1015.5 hPa NE 6.5 km/h 15.6 km/h 68.8% 0.0 mm
22:34 26.2 °C 20.1 °C 1015.5 hPa NE 6.9 km/h 16.1 km/h 69% 0.0 mm
22:39 26.2 °C 20 °C 1015.5 hPa NE 8.4 km/h 13 km/h 69% 0.0 mm
22:44 26.1 °C 20.2 °C 1015.5 hPa NNE 8.2 km/h 12.9 km/h 69.8% 0.0 mm
22:49 26.1 °C 20.2 °C 1015.5 hPa NNE 7.6 km/h 11.3 km/h 70% 0.0 mm
22:54 26.1 °C 20.2 °C 1015.7 hPa NNE 7.4 km/h 11.9 km/h 70% 0.0 mm
22:59 26 °C 20.4 °C 1015.7 hPa NNE 6.5 km/h 13 km/h 71% 0.0 mm
23:04 25.9 °C 20.2 °C 1015.7 hPa NNE 6.9 km/h 13 km/h 71% 0.0 mm
23:09 25.8 °C 20.2 °C 1015.7 hPa NNE 8.4 km/h 13 km/h 71% 0.0 mm
23:14 25.7 °C 20.2 °C 1015.7 hPa NNE 8.4 km/h 12.9 km/h 71.4% 0.0 mm
23:19 25.7 °C 20.3 °C 1015.7 hPa NNE 8.4 km/h 11.3 km/h 72% 0.0 mm
23:24 25.6 °C 20.3 °C 1015.7 hPa NNE 8.1 km/h 11.3 km/h 72.4% 0.0 mm
23:29 25.6 °C 20.4 °C 1015.7 hPa NNE 6.9 km/h 11.3 km/h 73% 0.0 mm
23:34 25.6 °C 20.3 °C 1015.7 hPa NNE 6.8 km/h 11.3 km/h 73% 0.0 mm
23:39 25.5 °C 20.3 °C 1015.8 hPa NNE 6.5 km/h 9.7 km/h 73% 0.0 mm
23:44 25.5 °C 20.4 °C 1015.8 hPa NNE 6.3 km/h 9.7 km/h 73.7% 0.0 mm
23:49 25.4 °C 20.4 °C 1015.8 hPa NNE 5.8 km/h 9.5 km/h 74% 0.0 mm
23:54 25.4 °C 20.4 °C 1015.9 hPa NNE 5.8 km/h 9.7 km/h 74% 0.0 mm
23:59 25.4 °C 20.5 °C 1015.9 hPa NE 5.8 km/h 9.7 km/h 74% 0.0 mm
Murcia-Puente Tocinos, España
Compliments of Weather Underground - 3 mb

La estación de MeteoMurcia.com, publica sus datos en los siguientes proyectos:

Weather Underground PWS IMURCIAP2 Meteoclimatic www.awekas.at

W3Counter
Web Analytics